Time;durP1;ratioP1;P1;durP2;ratioP2;P2;SDS_P1;SDS_P2;PMS_P1;PMS_P2;Temp;Humidity;BMP_temperature;BMP_pressure;BME280_temperature;BME280_humidity;BME280_pressure;Samples;Min_cycle;Max_cycle;Signal;HPM_P1;HPM_P2
2022/04/28 09:51:35;;;;;;;3.55;1.92;;;19.60;52.50;;;;;;5090880;28;20405;-94
2022/04/28 09:54:06;;;;;;;1.90;1.67;;;19.20;53.50;;;;;;5091018;28;20051;-93
2022/04/28 13:17:14;;;;;;;3.47;2.20;;;18.20;54.40;;;;;;5112750;27;20365;-91
2022/04/28 13:19:40;;;;;;;5.68;3.03;;;18.20;55.40;;;;;;5112327;28;20096;-92
2022/04/28 13:22:06;;;;;;;2.75;2.15;;;18.20;55.70;;;;;;5111130;28;20474;-93
2022/04/28 13:24:32;;;;;;;2.67;2.28;;;18.30;55.90;;;;;;5110946;28;20024;-94
2022/04/28 13:26:59;;;;;;;6.20;2.30;;;18.20;55.50;;;;;;5111109;28;20028;-94
2022/04/28 13:29:25;;;;;;;2.65;1.92;;;18.00;55.10;;;;;;5111013;28;20024;-91
2022/04/28 13:31:50;;;;;;;8.07;3.00;;;18.00;55.50;;;;;;5110718;28;20028;-91
2022/04/28 13:34:16;;;;;;;4.68;2.88;;;18.00;55.60;;;;;;5111025;28;20057;-93
2022/04/28 13:36:43;;;;;;;3.25;2.03;;;18.00;55.30;;;;;;5110809;28;20031;-94
2022/04/28 13:39:08;;;;;;;3.03;2.10;;;17.90;55.20;;;;;;5110914;28;20111;-93
2022/04/28 13:41:34;;;;;;;8.52;5.45;;;17.90;55.30;;;;;;5111135;28;20181;-93
2022/04/28 13:44:01;;;;;;;4.63;2.55;;;18.00;55.30;;;;;;5112087;28;20453;-91
2022/04/28 13:46:27;;;;;;;2.30;2.10;;;17.80;55.30;;;;;;5110364;28;20024;-93
2022/04/28 13:48:52;;;;;;;2.70;2.20;;;17.90;55.80;;;;;;5110811;28;20027;-94
2022/04/28 13:51:18;;;;;;;3.80;2.35;;;17.90;55.70;;;;;;5110848;28;20122;-93
2022/04/28 13:53:45;;;;;;;3.25;2.13;;;17.80;55.70;;;;;;5110446;28;20114;-92
2022/04/28 13:56:11;;;;;;;4.75;2.60;;;17.90;56.00;;;;;;5110209;28;20378;-94
2022/04/28 13:58:38;;;;;;;4.55;2.13;;;18.00;56.50;;;;;;5110384;28;20023;-94
2022/04/28 14:01:04;;;;;;;4.40;2.55;;;18.00;56.40;;;;;;5110529;28;20023;-95
2022/04/28 14:03:31;;;;;;;7.07;3.30;;;18.10;56.10;;;;;;5110146;28;20031;-92
2022/04/28 14:05:59;;;;;;;2.67;2.47;;;18.10;56.70;;;;;;5110440;28;20461;-93
2022/04/28 14:08:25;;;;;;;2.10;2.00;;;18.10;56.30;;;;;;5110200;28;20084;-94
2022/04/28 14:10:51;;;;;;;3.25;1.90;;;18.10;56.10;;;;;;5110138;28;20032;-93
2022/04/28 14:13:18;;;;;;;3.53;2.20;;;18.10;56.10;;;;;;5111299;28;20114;-95
2022/04/28 14:15:44;;;;;;;3.42;2.20;;;17.90;56.10;;;;;;5109715;28;20097;-93
2022/04/28 14:18:10;;;;;;;2.58;2.22;;;17.90;56.70;;;;;;5110349;28;20474;-93
2022/04/28 14:20:36;;;;;;;3.70;2.80;;;17.70;56.90;;;;;;5110285;28;20113;-94
2022/04/28 14:23:03;;;;;;;3.83;3.00;;;17.70;56.80;;;;;;5110133;28;20059;-91
2022/04/28 14:25:29;;;;;;;6.18;4.32;;;17.60;57.20;;;;;;5110474;28;20050;-90
2022/04/28 14:27:55;;;;;;;7.30;4.30;;;17.60;56.50;;;;;;5100914;28;20035;-91
2022/04/28 14:30:21;;;;;;;3.25;2.80;;;17.60;56.40;;;;;;5096380;28;20025;-93
2022/04/28 14:32:47;;;;;;;5.05;3.40;;;17.50;55.80;;;;;;5096133;28;20466;-91
2022/04/28 14:35:13;;;;;;;4.53;3.30;;;17.30;56.60;;;;;;5096253;28;20028;-92
2022/04/28 14:37:41;;;;;;;6.85;3.58;;;17.30;57.10;;;;;;5095813;28;20496;-91
2022/04/28 14:40:09;;;;;;;3.22;2.85;;;17.20;57.60;;;;;;5096344;28;20032;-92
2022/04/28 14:42:35;;;;;;;2.90;2.30;;;17.20;57.70;;;;;;5095956;28;20462;-92
2022/04/28 14:45:02;;;;;;;12.68;3.20;;;17.10;57.70;;;;;;5095972;28;20130;-94
2022/04/28 14:47:28;;;;;;;4.40;2.88;;;17.10;57.80;;;;;;5096038;28;20115;-91
2022/04/28 14:52:38;;;;;;;2.42;2.20;;;17.20;57.70;;;;;;5097192;28;20101;-91
2022/04/28 14:55:06;;;;;;;4.20;2.28;;;17.30;57.10;;;;;;5095444;28;20028;-91
2022/04/28 14:57:37;;;;;;;2.67;2.30;;;17.20;56.40;;;;;;5095571;28;20070;-90
2022/04/28 15:00:06;;;;;;;7.88;2.55;;;17.20;56.70;;;;;;5096441;28;20047;-91
2022/04/28 15:02:32;;;;;;;2.60;2.40;;;17.20;56.90;;;;;;5095763;28;20467;-90
2022/04/28 15:04:58;;;;;;;4.18;2.10;;;17.10;56.10;;;;;;5095534;28;20078;-91
2022/04/28 15:07:25;;;;;;;3.78;2.45;;;17.10;56.00;;;;;;5095533;28;20020;-89
2022/04/28 15:09:50;;;;;;;4.45;3.88;;;17.10;56.00;;;;;;5095536;28;20065;-91
2022/04/28 15:12:16;;;;;;;3.95;2.60;;;17.00;56.20;;;;;;5095311;28;20024;-91
2022/04/28 15:14:43;;;;;;;2.95;2.30;;;17.00;56.60;;;;;;5095184;28;20119;-90
2022/04/28 15:17:10;;;;;;;3.22;2.28;;;17.00;56.10;;;;;;5094805;28;20040;-92
2022/04/28 15:19:36;;;;;;;3.83;2.80;;;16.90;55.90;;;;;;5095201;28;20024;-91
2022/04/28 15:22:04;;;;;;;2.72;2.53;;;16.90;56.20;;;;;;5095281;28;20463;-91
2022/04/28 15:24:31;;;;;;;5.22;3.00;;;16.90;56.50;;;;;;5094237;28;20020;-91
2022/04/28 15:26:57;;;;;;;5.93;2.50;;;16.90;56.30;;;;;;5094394;28;20020;-92
2022/04/28 15:29:23;;;;;;;2.45;2.20;;;16.80;56.50;;;;;;5094452;28;20375;-92
2022/04/28 15:31:49;;;;;;;2.92;2.60;;;16.70;56.30;;;;;;5094067;28;20493;-92
2022/04/28 15:34:16;;;;;;;3.10;2.70;;;16.80;56.10;;;;;;5094200;28;20483;-94
2022/04/28 15:36:42;;;;;;;5.82;2.50;;;16.70;56.80;;;;;;5094200;28;20028;-92
2022/04/28 15:39:09;;;;;;;4.18;2.63;;;16.70;57.10;;;;;;5093530;28;20376;-91
2022/04/28 15:41:37;;;;;;;3.38;2.95;;;16.60;56.90;;;;;;5094727;28;20023;-90
2022/04/28 15:44:07;;;;;;;3.53;3.10;;;16.50;56.60;;;;;;5094673;28;20027;-94
2022/04/28 15:46:34;;;;;;;4.90;2.80;;;16.40;57.00;;;;;;5095310;28;20113;-96
2022/04/28 15:54:27;;;;;;;2.78;2.00;;;16.20;56.50;;;;;;5062272;28;20040;-95
2022/04/28 15:56:53;;;;;;;2.17;1.98;;;16.10;56.60;;;;;;5045792;28;20115;-95
2022/04/28 15:59:43;;;;;;;5.07;2.30;;;16.20;57.00;;;;;;5048050;28;20060;-96
2022/04/28 16:02:10;;;;;;;4.55;2.60;;;16.20;57.30;;;;;;5042030;28;20029;-95
2022/04/28 16:04:36;;;;;;;2.58;2.38;;;16.10;57.40;;;;;;5038770;28;20075;-95
2022/04/28 16:07:02;;;;;;;3.60;2.88;;;16.10;57.60;;;;;;5038930;28;20025;-95
2022/04/28 16:09:28;;;;;;;2.72;2.47;;;16.00;57.70;;;;;;5041114;28;20025;-95
2022/04/28 16:11:54;;;;;;;3.15;2.30;;;16.00;57.60;;;;;;5039406;28;20490;-96
2022/04/28 16:14:21;;;;;;;2.42;2.22;;;16.00;57.70;;;;;;5042403;28;20099;-95
2022/04/28 16:16:47;;;;;;;5.30;2.35;;;15.90;57.40;;;;;;5042614;28;20020;-95
2022/04/28 16:19:13;;;;;;;2.20;1.85;;;15.80;57.50;;;;;;5040937;28;20032;-96
2022/04/28 16:21:38;;;;;;;2.15;2.00;;;15.80;57.80;;;;;;5037667;28;20103;-90
2022/04/28 16:24:05;;;;;;;4.63;2.30;;;15.70;57.90;;;;;;5042721;28;20021;-94
2022/04/28 16:26:32;;;;;;;3.38;2.38;;;15.70;58.10;;;;;;5038772;28;20029;-93
2022/04/28 16:28:58;;;;;;;5.10;2.15;;;15.70;58.60;;;;;;5038283;28;20040;-94
2022/04/28 16:31:25;;;;;;;4.25;2.50;;;15.60;58.80;;;;;;5042440;28;20025;-96
2022/04/28 16:34:16;;;;;;;2.72;2.20;;;15.60;58.80;;;;;;5041523;28;20033;-96
2022/04/28 16:36:42;;;;;;;4.07;2.42;;;15.50;58.50;;;;;;5040541;28;20025;-96
2022/04/28 16:39:08;;;;;;;2.67;2.15;;;15.50;58.60;;;;;;5040252;28;20025;-96
2022/04/28 16:41:34;;;;;;;6.30;2.80;;;15.40;58.90;;;;;;5038135;28;20021;-95
2022/04/28 16:44:00;;;;;;;4.60;3.20;;;15.30;59.20;;;;;;5037214;28;20021;-96
2022/04/28 16:46:27;;;;;;;4.57;2.80;;;15.30;59.70;;;;;;5037573;28;20025;-96
2022/04/28 16:48:53;;;;;;;3.83;2.72;;;15.20;59.70;;;;;;5039680;28;20517;-96
2022/04/28 16:51:19;;;;;;;5.30;2.75;;;15.20;59.80;;;;;;5040078;28;20025;-94
2022/04/28 16:53:45;;;;;;;3.38;2.78;;;15.20;60.10;;;;;;5034127;28;20103;-95
2022/04/28 16:56:17;;;;;;;2.80;2.30;;;15.20;60.20;;;;;;5038331;28;20046;-95
2022/04/28 16:58:51;;;;;;;4.53;2.10;;;15.20;60.20;;;;;;5102007;22;20056;-93
2022/04/28 17:01:17;;;;;;;2.25;2.05;;;15.10;60.00;;;;;;5127755;22;20028;-96
2022/04/28 17:09:10;;;;;;;2.50;2.30;;;15.00;60.20;;;;;;5591844;22;20057;-96
2022/04/28 17:11:36;;;;;;;8.93;3.63;;;15.00;60.10;;;;;;5013702;28;20030;-91
2022/04/28 17:14:05;;;;;;;7.70;5.05;;;15.00;60.40;;;;;;5019303;28;20025;-94
2022/04/28 17:16:32;;;;;;;16.15;12.18;;;14.90;60.80;;;;;;5018184;28;20029;-95
2022/04/28 17:18:59;;;;;;;6.30;3.80;;;14.90;60.70;;;;;;5018212;28;20048;-94
2022/04/28 17:21:27;;;;;;;4.55;2.72;;;14.90;60.90;;;;;;5017013;28;20026;-93
2022/04/28 17:23:53;;;;;;;4.07;3.60;;;14.90;61.10;;;;;;5017274;28;20022;-91
2022/04/28 17:26:19;;;;;;;4.00;2.40;;;14.90;61.70;;;;;;5017766;28;20559;-90
2022/04/28 17:28:45;;;;;;;3.40;2.20;;;14.90;61.60;;;;;;5016807;28;20036;-96
2022/04/28 17:31:12;;;;;;;2.88;2.53;;;14.80;61.40;;;;;;5016729;28;20025;-91
2022/04/28 17:33:37;;;;;;;3.72;3.28;;;14.80;61.50;;;;;;5017082;28;20031;-93
2022/04/28 17:36:04;;;;;;;4.00;3.63;;;14.80;61.50;;;;;;5016859;28;20120;-92
2022/04/28 17:38:30;;;;;;;2.95;2.50;;;14.80;61.40;;;;;;5016744;28;20049;-92
2022/04/28 17:40:56;;;;;;;6.00;2.67;;;14.80;61.70;;;;;;5016396;28;20021;-91
2022/04/28 17:43:22;;;;;;;3.92;3.22;;;14.70;62.10;;;;;;5016639;28;20108;-90
2022/04/28 17:45:48;;;;;;;3.10;2.70;;;14.60;62.50;;;;;;5016662;28;20110;-95
2022/04/28 17:48:14;;;;;;;2.45;2.25;;;14.60;62.70;;;;;;5016640;28;20030;-90
2022/04/28 17:50:40;;;;;;;32.35;25.35;;;14.50;62.50;;;;;;5016399;28;20025;-95
2022/04/28 17:53:06;;;;;;;4.28;3.63;;;14.50;62.40;;;;;;5016184;28;20059;-87
2022/04/28 18:01:03;;;;;;;5.15;3.08;;;14.40;62.40;;;;;;5034140;28;20041;-91
2022/04/28 18:03:30;;;;;;;3.13;2.63;;;14.40;62.50;;;;;;5020400;28;20031;-95
2022/04/28 18:05:57;;;;;;;6.45;3.33;;;14.30;62.60;;;;;;5020056;28;20029;-94
2022/04/28 18:08:23;;;;;;;3.58;2.60;;;14.30;63.90;;;;;;5019845;28;20033;-91
2022/04/28 18:10:49;;;;;;;5.07;2.53;;;14.20;63.20;;;;;;5019954;28;20036;-91
2022/04/28 18:13:15;;;;;;;2.47;2.28;;;14.20;63.20;;;;;;5020151;28;20396;-92
2022/04/28 18:15:41;;;;;;;3.55;2.30;;;14.20;63.30;;;;;;5019626;28;20029;-89
2022/04/28 18:18:08;;;;;;;3.10;2.70;;;14.20;63.40;;;;;;5019685;28;20028;-91
2022/04/28 18:20:34;;;;;;;5.00;3.15;;;14.10;63.50;;;;;;5019596;28;20472;-89
2022/04/28 18:23:00;;;;;;;6.05;3.60;;;14.10;63.60;;;;;;5019581;28;20026;-91
2022/04/28 18:25:26;;;;;;;4.97;3.38;;;14.10;63.70;;;;;;5019605;28;20028;-90
2022/04/28 18:27:52;;;;;;;3.90;3.17;;;14.10;63.90;;;;;;5037185;28;20029;-90
2022/04/28 18:30:18;;;;;;;3.85;3.00;;;14.10;64.20;;;;;;5019424;28;20051;-90
2022/04/28 18:32:45;;;;;;;12.43;3.00;;;14.00;64.50;;;;;;5019417;28;20443;-90
2022/04/28 18:35:12;;;;;;;5.03;2.90;;;14.00;65.20;;;;;;5019230;28;20499;-91
2022/04/28 18:45:54;;;;;;;24.45;14.00;;;13.80;67.00;;;;;;5037300;28;20032;-91
2022/04/28 18:48:23;;;;;;;16.50;10.48;;;13.80;66.80;;;;;;5019407;28;20036;-91
2022/04/28 18:50:48;;;;;;;14.90;8.60;;;13.80;66.80;;;;;;5019136;28;20033;-92
2022/04/28 18:53:14;;;;;;;10.25;6.75;;;13.80;66.80;;;;;;5019070;28;20028;-91
2022/04/28 18:55:40;;;;;;;11.48;6.50;;;13.80;67.00;;;;;;5019084;28;20029;-93
2022/04/28 18:58:07;;;;;;;11.35;7.95;;;13.80;67.20;;;;;;5019119;28;20068;-93
2022/04/28 19:00:35;;;;;;;15.88;10.70;;;13.80;67.70;;;;;;5019031;28;20025;-94
2022/04/28 19:03:03;;;;;;;13.35;9.13;;;13.70;68.00;;;;;;5019310;28;20116;-93
2022/04/28 19:05:30;;;;;;;13.23;8.52;;;13.70;68.50;;;;;;5018914;28;20028;-94
2022/04/28 19:07:56;;;;;;;13.60;8.73;;;13.70;68.90;;;;;;5036353;28;20047;-94
2022/04/28 19:10:22;;;;;;;14.18;8.90;;;13.60;68.90;;;;;;5018504;28;20053;-93
2022/04/28 19:12:47;;;;;;;18.45;9.20;;;13.60;69.00;;;;;;5018478;28;20076;-92
2022/04/28 19:15:14;;;;;;;11.57;7.35;;;13.60;69.20;;;;;;5018644;28;20026;-93
2022/04/28 19:17:41;;;;;;;11.10;6.55;;;13.50;69.60;;;;;;5018704;28;20025;-94
2022/04/28 19:20:08;;;;;;;10.02;6.10;;;13.50;70.30;;;;;;5018571;28;20057;-93
2022/04/28 19:22:37;;;;;;;8.13;5.57;;;13.60;70.60;;;;;;5018911;28;20451;-96
2022/04/28 19:25:04;;;;;;;13.55;9.60;;;13.50;71.30;;;;;;5019586;28;20032;-86
2022/04/28 19:27:31;;;;;;;21.70;13.07;;;13.50;70.80;;;;;;5019536;28;20025;-91
2022/04/28 19:29:57;;;;;;;11.60;7.32;;;13.50;70.70;;;;;;5019284;28;20028;-94
2022/04/28 19:32:24;;;;;;;7.53;4.95;;;13.50;70.40;;;;;;5018783;28;20128;-95
2022/04/28 19:34:51;;;;;;;9.57;6.05;;;13.50;70.20;;;;;;5018255;28;20487;-96
2022/04/28 19:37:18;;;;;;;5.25;4.47;;;13.50;70.20;;;;;;5019471;28;20033;-95
2022/04/28 19:39:46;;;;;;;6.05;3.83;;;13.50;70.30;;;;;;5018988;28;20028;-96
2022/04/28 19:42:14;;;;;;;7.18;3.90;;;13.50;70.30;;;;;;5036864;28;20028;-96
2022/04/28 19:44:41;;;;;;;22.33;16.63;;;13.40;70.50;;;;;;5019168;28;20116;-94
2022/04/28 19:47:07;;;;;;;26.05;17.73;;;13.40;70.70;;;;;;5018744;28;20025;-94
2022/04/28 19:49:36;;;;;;;15.77;11.25;;;13.40;70.70;;;;;;5018963;28;20120;-96
2022/04/28 19:52:05;;;;;;;10.95;6.18;;;13.40;70.90;;;;;;5018311;28;20029;-95
2022/04/28 19:54:31;;;;;;;7.25;4.75;;;13.30;71.10;;;;;;5018156;28;20043;-94
2022/04/28 19:56:58;;;;;;;5.32;3.67;;;13.30;70.80;;;;;;5017988;28;20029;-95
2022/04/28 19:59:24;;;;;;;6.13;3.25;;;13.30;70.80;;;;;;5017940;28;20026;-93
2022/04/28 20:01:51;;;;;;;3.22;2.92;;;13.30;70.90;;;;;;5018064;28;20464;-94
2022/04/28 20:04:17;;;;;;;3.65;2.80;;;13.20;71.00;;;;;;5018068;28;20029;-95
2022/04/28 20:06:43;;;;;;;3.25;2.25;;;13.20;71.00;;;;;;5009297;28;20038;-94
2022/04/28 20:09:10;;;;;;;4.90;3.22;;;13.10;71.10;;;;;;5006807;28;20058;-94
2022/04/28 20:11:36;;;;;;;3.38;2.95;;;13.10;71.50;;;;;;5011099;28;20028;-93
2022/04/28 20:14:02;;;;;;;5.93;2.90;;;13.00;71.70;;;;;;5004128;28;20029;-94
2022/04/28 20:16:29;;;;;;;3.38;2.75;;;13.00;72.30;;;;;;4997457;28;20037;-94
2022/04/28 20:18:56;;;;;;;7.95;4.05;;;12.90;72.80;;;;;;4997611;28;20022;-94
2022/04/28 20:21:23;;;;;;;8.38;4.72;;;12.90;72.90;;;;;;4997712;28;20018;-94
2022/04/28 20:23:49;;;;;;;10.52;5.78;;;12.90;72.90;;;;;;4997745;28;20029;-94
2022/04/28 20:26:17;;;;;;;9.45;5.32;;;12.80;72.90;;;;;;4997122;28;20033;-94
2022/04/28 20:28:44;;;;;;;6.85;5.10;;;12.80;72.50;;;;;;4997216;28;20022;-94
2022/04/28 20:31:10;;;;;;;12.07;4.72;;;12.80;72.40;;;;;;4997336;28;20033;-94
2022/04/28 20:33:36;;;;;;;8.60;4.75;;;12.80;72.80;;;;;;4997145;28;20026;-93
2022/04/28 20:36:05;;;;;;;6.40;4.82;;;12.70;72.70;;;;;;4997183;28;20037;-94
2022/04/28 20:38:31;;;;;;;7.20;4.80;;;12.80;72.50;;;;;;4997318;28;20424;-93
2022/04/28 20:40:57;;;;;;;7.75;4.85;;;12.80;72.50;;;;;;5017716;28;20054;-93
2022/04/28 20:43:27;;;;;;;5.95;4.40;;;12.80;72.80;;;;;;5000014;28;20033;-94
2022/04/28 20:45:53;;;;;;;6.25;4.35;;;12.70;73.10;;;;;;5011822;28;20021;-94
2022/04/28 20:48:19;;;;;;;6.93;4.78;;;12.70;73.10;;;;;;5003949;28;20028;-94
2022/04/28 20:50:45;;;;;;;7.63;5.30;;;12.70;73.40;;;;;;5008021;28;20047;-93
2022/04/28 20:53:12;;;;;;;6.68;4.90;;;12.70;73.90;;;;;;5011675;28;20560;-94
2022/04/28 20:55:39;;;;;;;7.85;5.00;;;12.70;74.70;;;;;;5016942;28;20079;-93
2022/04/28 20:58:06;;;;;;;6.65;4.50;;;12.70;76.60;;;;;;5017086;28;20021;-91
2022/04/28 21:00:33;;;;;;;5.22;3.70;;;12.70;77.90;;;;;;5017100;28;20411;-94
2022/04/28 21:02:59;;;;;;;5.93;3.65;;;12.70;80.70;;;;;;5016976;28;20123;-93
2022/04/28 21:05:26;;;;;;;7.63;3.45;;;12.60;81.10;;;;;;5017212;28;20087;-92
2022/04/28 21:07:53;;;;;;;3.88;3.25;;;12.60;81.40;;;;;;5016699;28;20026;-90
2022/04/28 21:10:20;;;;;;;6.40;3.90;;;12.60;80.50;;;;;;5017109;28;20396;-92
2022/04/28 21:12:49;;;;;;;7.10;3.80;;;12.60;80.50;;;;;;5017210;28;20032;-93
2022/04/28 21:15:16;;;;;;;4.28;3.45;;;12.60;80.00;;;;;;5017021;28;20384;-96
2022/04/28 21:17:42;;;;;;;5.82;3.75;;;12.70;79.90;;;;;;5016959;28;20021;-91
2022/04/28 21:20:12;;;;;;;5.68;4.15;;;12.70;79.40;;;;;;5016940;28;20036;-93
2022/04/28 21:22:38;;;;;;;4.00;3.60;;;12.70;79.00;;;;;;5016802;28;20031;-93
2022/04/28 21:25:05;;;;;;;7.00;4.00;;;12.70;78.60;;;;;;5016825;28;20052;-92
2022/04/28 21:27:32;;;;;;;6.53;3.78;;;12.70;79.00;;;;;;5016796;28;20490;-95
2022/04/28 21:29:58;;;;;;;4.95;3.92;;;12.70;79.90;;;;;;5017211;28;20075;-94
2022/04/28 21:32:27;;;;;;;5.90;3.85;;;12.60;80.30;;;;;;5016743;28;20022;-92
2022/04/28 21:34:56;;;;;;;5.18;4.18;;;12.50;81.00;;;;;;5016676;28;20053;-94
2022/04/28 21:37:22;;;;;;;7.22;4.03;;;12.50;81.50;;;;;;5017688;28;20036;-93
2022/04/28 21:39:48;;;;;;;5.53;4.05;;;12.40;81.80;;;;;;5020566;28;20021;-93
2022/04/28 21:42:15;;;;;;;7.45;4.20;;;12.40;82.00;;;;;;5020680;28;20040;-93
2022/04/28 21:44:41;;;;;;;7.85;4.22;;;12.40;82.10;;;;;;5020549;28;20022;-92
2022/04/28 21:47:08;;;;;;;5.57;3.88;;;12.40;81.90;;;;;;5020688;28;20391;-95
2022/04/28 21:49:34;;;;;;;10.45;4.22;;;12.30;82.10;;;;;;5020548;28;20025;-93
2022/04/28 21:52:00;;;;;;;6.40;4.35;;;12.40;82.10;;;;;;5020459;28;20108;-94
2022/04/28 21:54:26;;;;;;;6.25;4.50;;;12.30;82.10;;;;;;5020279;28;20021;-94
2022/04/28 21:56:53;;;;;;;5.05;3.95;;;12.30;82.40;;;;;;5020123;28;20025;-91
2022/04/28 21:59:19;;;;;;;5.13;3.80;;;12.30;82.40;;;;;;5020264;28;20487;-94
2022/04/28 22:01:45;;;;;;;6.22;4.13;;;12.30;82.00;;;;;;5020128;28;20028;-93
2022/04/28 22:12:24;;;;;;;4.05;3.50;;;12.30;80.50;;;;;;5037925;28;20036;-92
2022/04/28 22:14:50;;;;;;;5.43;3.80;;;12.40;80.60;;;;;;5019995;28;20052;-93
2022/04/28 22:17:16;;;;;;;5.50;3.47;;;12.30;81.20;;;;;;5019884;28;20460;-92
2022/04/28 22:19:42;;;;;;;8.98;4.25;;;12.30;81.30;;;;;;5020086;28;20029;-91
2022/04/28 22:22:08;;;;;;;4.97;3.95;;;12.30;81.50;;;;;;5019998;28;20025;-94
2022/04/28 22:24:35;;;;;;;5.45;4.10;;;12.30;81.60;;;;;;5019999;28;20132;-93
2022/04/28 22:27:01;;;;;;;5.80;3.50;;;12.30;81.80;;;;;;5019792;28;20021;-94
2022/04/28 22:29:26;;;;;;;5.68;4.10;;;12.30;81.80;;;;;;5019737;28;20393;-93
2022/04/28 22:31:52;;;;;;;10.68;3.72;;;12.30;82.20;;;;;;5019677;28;20464;-94
2022/04/28 22:34:18;;;;;;;6.72;4.30;;;12.20;82.80;;;;;;5019573;28;20022;-95
2022/04/28 22:36:44;;;;;;;5.65;3.88;;;12.20;83.00;;;;;;5019468;28;20025;-93
2022/04/28 22:39:09;;;;;;;3.80;3.28;;;12.20;82.80;;;;;;5020022;28;20029;-94
2022/04/28 22:41:39;;;;;;;5.03;3.65;;;12.20;82.60;;;;;;5019475;28;20022;-94
2022/04/28 22:44:05;;;;;;;4.55;3.40;;;12.20;82.30;;;;;;5019692;28;20041;-93
2022/04/28 22:46:31;;;;;;;4.50;3.10;;;12.20;82.00;;;;;;5019468;28;20041;-94
2022/04/28 22:48:57;;;;;;;4.82;3.50;;;12.20;81.90;;;;;;5019692;28;20092;-94
2022/04/28 22:51:23;;;;;;;5.00;3.63;;;12.30;81.10;;;;;;5019403;28;20102;-94
2022/04/28 22:53:49;;;;;;;6.03;3.67;;;12.30;80.90;;;;;;5019441;28;20025;-93
2022/04/28 22:56:16;;;;;;;5.45;3.70;;;12.30;81.00;;;;;;5019356;28;20025;-93
2022/04/28 22:58:43;;;;;;;4.95;3.72;;;12.30;80.10;;;;;;5018983;28;20053;-93
2022/04/28 23:01:09;;;;;;;6.13;3.53;;;12.30;79.80;;;;;;5019161;28;20484;-92
2022/04/28 23:03:36;;;;;;;5.15;3.35;;;12.30;78.80;;;;;;5018992;28;20021;-93
2022/04/28 23:06:02;;;;;;;5.20;3.40;;;12.30;78.10;;;;;;5019230;28;20029;-95
2022/04/28 23:08:28;;;;;;;7.72;3.60;;;12.40;78.40;;;;;;5018807;28;20068;-94
2022/04/28 23:10:54;;;;;;;6.05;3.58;;;12.40;78.70;;;;;;5018802;28;20080;-93
2022/04/28 23:13:20;;;;;;;5.20;3.50;;;12.40;79.20;;;;;;5019075;28;20033;-95
2022/04/28 23:15:46;;;;;;;4.72;3.20;;;12.40;80.10;;;;;;5018869;28;20083;-95
2022/04/28 23:18:12;;;;;;;4.20;3.40;;;12.30;80.30;;;;;;5018877;28;20079;-95
2022/04/28 23:20:38;;;;;;;7.90;3.78;;;12.30;80.40;;;;;;5018698;28;20053;-93
2022/04/28 23:23:05;;;;;;;4.57;3.30;;;12.30;80.70;;;;;;5018571;28;20025;-93
2022/04/28 23:25:31;;;;;;;3.80;3.03;;;12.30;81.10;;;;;;5018866;28;20113;-95
2022/04/28 23:28:00;;;;;;;8.48;3.00;;;12.30;81.20;;;;;;5018759;28;20537;-94
2022/04/28 23:30:26;;;;;;;3.28;2.63;;;12.30;81.10;;;;;;5018551;28;20025;-93
2022/04/28 23:32:52;;;;;;;4.05;3.00;;;12.30;80.80;;;;;;5019130;28;20131;-94
2022/04/28 23:40:46;;;;;;;4.63;2.83;;;12.30;80.50;;;;;;5036155;28;20048;-93
2022/04/28 23:43:12;;;;;;;4.40;2.78;;;12.30;80.70;;;;;;5018235;28;20029;-94
2022/04/28 23:45:39;;;;;;;4.05;2.75;;;12.30;80.70;;;;;;5018237;28;20484;-94
2022/04/28 23:48:07;;;;;;;4.38;2.50;;;12.30;80.70;;;;;;5018267;28;20483;-93
2022/04/28 23:50:33;;;;;;;6.88;2.63;;;12.20;80.50;;;;;;5018223;28;20037;-93
2022/04/28 23:55:45;;;;;;;3.35;2.60;;;12.20;80.80;;;;;;5036222;28;20099;-94
2022/04/28 23:58:11;;;;;;;3.90;2.33;;;12.20;79.20;;;;;;5018009;28;20044;-94
